aviador You're here:

KBVE Decoded Metar

BOOTHVILLE in LA, USA
Report Time2018-01-19 10:51:00
UTC Time2018-01-19 11:24:01
Flight Rules vfr VFR
Wind010° at 03 kt
W.Rank010° ranks 27
Current wind is below 010° avg. (6.9)
Visibility9999 m
Phenomena:N/A
Clouds:N/A
Expected CloudBase > 1,600 ft AGL from Temp-Dew spread
CeilingNone
Temp04°C (ISA -11)
Dew Point00°C (75% RH)
AAT0.9°C
QNH1028 hPa
Density Alt-1,755 ft
Elevation3 ft
Report Wrong Elevation
Raw Report
KBVE 191051Z AUTO 01003KT 10SM CLR 04/00 A3035 RMK AO2 SLP278
T00390000=

Extra information for KBVE:More info

Metar Taf Metar & Taf Last 4 Metars F.Rules Stats Wind Profile Meteogram Temp Stats Airport Information Weather charts Add Link Nearby VenuesMetar ALERT Operation Metar Decoded Social comments

AIRNAV info for KBVE